Barra do Garcas, Brazil
Current Conditions -  °F | °C
As of 2:00 PM on Saturday 25 Oct 2014 (Local Time) from SBBW Reporting Station
Broken Clouds Broken Clouds  
Wind Chill: 88°   Ceiling: 10000
Heat Index: 91°   Visibility: 6mi
Dew Point: 68°   Wind: 2mph
Humidity: 52%   Direction: 220°SW
Pressure: 29.91"   Gusts: NA
Location:  15.88°S, 52.26°W
Report Text: SBBW 251700Z 22002KT 9999 SCT020 BKN100 31/20 Q1013
Loading
Personal Weather Stations






























Interactive Weather Map
Tropical Storm Tracking
New forecast layout! Learn more

10-Day Weather Forecast

Advertisements
Track Severe Weather on mobile